createdAt,value
2018-10-18T00:03:54.033Z,41.40
2018-10-18T00:07:57.473Z,38.20
2018-10-18T00:12:00.900Z,37.57
2018-10-18T00:16:04.251Z,35.97
2018-10-18T00:20:07.719Z,34.33
2018-10-18T00:24:11.128Z,37.43
2018-10-18T00:28:14.500Z,29.90
2018-10-18T00:32:17.892Z,31.17
2018-10-18T00:36:21.280Z,31.17
2018-10-18T00:40:24.767Z,32.90
2018-10-18T00:44:28.187Z,33.97
2018-10-18T00:48:31.568Z,38.43
2018-10-18T00:52:34.968Z,35.73
2018-10-18T00:56:38.364Z,36.03
2018-10-18T01:00:41.740Z,36.87
2018-10-18T01:04:45.138Z,38.20
2018-10-18T01:08:48.820Z,38.87
2018-10-18T01:12:52.225Z,39.93
2018-10-18T01:17:00.895Z,41.47
2018-10-18T01:21:04.316Z,39.90
2018-10-18T01:25:07.693Z,39.90
2018-10-18T01:29:11.067Z,38.03
2018-10-18T01:33:14.468Z,39.97
2018-10-18T01:37:17.852Z,43.73
2018-10-18T01:41:21.244Z,48.03
2018-10-18T01:45:24.768Z,45.53
2018-10-18T01:49:28.141Z,49.40
2018-10-18T01:53:31.506Z,50.07
2018-10-18T01:57:34.919Z,50.70
2018-10-18T02:01:38.322Z,52.27
2018-10-18T02:05:41.679Z,50.13
2018-10-18T02:09:45.132Z,53.67
2018-10-18T02:13:48.577Z,49.30
2018-10-18T02:17:52.066Z,51.07
2018-10-18T02:21:55.416Z,48.80
2018-10-18T02:25:58.797Z,47.73
2018-10-18T02:30:02.324Z,47.83
2018-10-18T02:34:05.717Z,46.97
2018-10-18T02:38:09.293Z,45.60
2018-10-18T02:42:12.759Z,47.30
2018-10-18T02:46:16.071Z,46.27
2018-10-18T02:50:19.573Z,46.63
2018-10-18T02:54:23.047Z,47.53
2018-10-18T02:58:26.427Z,47.60
2018-10-18T03:02:29.814Z,45.00
2018-10-18T03:06:33.209Z,45.90
2018-10-18T03:10:36.684Z,44.97
2018-10-18T03:14:40.065Z,45.00
2018-10-18T03:18:43.453Z,46.00
2018-10-18T03:22:46.837Z,44.77
2018-10-18T03:26:50.232Z,43.70
2018-10-18T03:30:53.594Z,45.17
2018-10-18T03:34:57.017Z,44.67
2018-10-18T03:39:00.455Z,45.03
2018-10-18T03:43:03.852Z,45.47
2018-10-18T03:47:07.265Z,44.57
2018-10-18T03:51:10.688Z,42.03
2018-10-18T03:55:14.103Z,38.47
2018-10-18T03:59:17.608Z,38.27
2018-10-18T04:03:20.988Z,36.97
2018-10-18T04:07:24.397Z,37.03
2018-10-18T04:11:27.758Z,36.83
2018-10-18T04:15:31.148Z,35.97
2018-10-18T04:19:34.584Z,37.47
2018-10-18T04:23:37.997Z,35.23
2018-10-18T04:27:41.372Z,35.57
2018-10-18T04:31:44.751Z,35.67
2018-10-18T04:35:48.181Z,34.13
2018-10-18T04:39:51.538Z,35.17
2018-10-18T04:43:54.912Z,35.50
2018-10-18T04:47:58.562Z,34.87
2018-10-18T04:52:01.774Z,36.10
2018-10-18T04:56:05.164Z,35.13
2018-10-18T05:00:08.753Z,37.43
2018-10-18T05:04:12.149Z,36.13
2018-10-18T05:08:15.568Z,34.03
2018-10-18T05:12:18.941Z,32.83
2018-10-18T05:16:22.339Z,33.00
2018-10-18T05:20:25.791Z,32.77
2018-10-18T05:24:29.242Z,32.83
2018-10-18T05:28:32.652Z,33.30
2018-10-18T05:32:36.041Z,32.43
2018-10-18T05:36:39.436Z,32.67
2018-10-18T05:40:42.805Z,34.10
2018-10-18T05:44:46.222Z,32.93
2018-10-18T05:48:49.636Z,31.40
2018-10-18T05:52:53.061Z,32.13
2018-10-18T05:56:56.523Z,34.07
2018-10-18T06:01:00.531Z,31.50
2018-10-18T06:05:04.255Z,32.53
2018-10-18T06:09:11.395Z,31.23
2018-10-18T06:13:15.886Z,31.37
2018-10-18T06:17:19.405Z,31.97
2018-10-18T06:21:23.925Z,31.43
2018-10-18T06:25:28.332Z,31.23
2018-10-18T06:29:32.497Z,30.40
2018-10-18T06:33:37.291Z,29.60
2018-10-18T06:37:41.997Z,30.85
2018-10-18T06:41:45.771Z,29.87
2018-10-18T06:45:49.823Z,31.30
2018-10-18T06:49:53.906Z,28.60
2018-10-18T06:53:57.815Z,30.73
2018-10-18T06:58:01.712Z,28.67
2018-10-18T07:02:05.411Z,28.67
2018-10-18T07:06:09.666Z,28.67
2018-10-18T07:10:13.511Z,30.30
2018-10-18T07:14:18.157Z,26.60
2018-10-18T07:18:21.865Z,28.67
2018-10-18T07:22:25.236Z,27.70
2018-10-18T07:26:28.665Z,27.10
2018-10-18T07:30:32.084Z,26.90
2018-10-18T07:34:35.483Z,27.60
2018-10-18T07:38:39.040Z,26.43
2018-10-18T07:42:42.546Z,28.27
2018-10-18T07:46:46.069Z,26.60
2018-10-18T07:50:49.603Z,26.10
2018-10-18T07:54:54.961Z,26.10
2018-10-18T07:58:58.865Z,26.60
2018-10-18T08:03:03.386Z,29.45
2018-10-18T08:07:07.374Z,25.70
2018-10-18T08:11:11.370Z,23.87
2018-10-18T08:15:16.585Z,25.50
2018-10-18T08:19:20.190Z,23.17
2018-10-18T08:23:23.973Z,23.47
2018-10-18T08:27:28.069Z,23.47
2018-10-18T08:31:32.155Z,23.57
2018-10-18T08:35:36.693Z,24.20
2018-10-18T08:39:40.699Z,27.17
2018-10-18T08:43:44.708Z,23.63
2018-10-18T08:47:48.747Z,26.53
2018-10-18T08:51:52.977Z,26.07
2018-10-18T08:55:56.955Z,25.33
2018-10-18T09:00:01.332Z,22.90
2018-10-18T09:04:05.211Z,23.70
2018-10-18T09:08:09.132Z,22.27
2018-10-18T09:12:13.191Z,22.23
2018-10-18T09:16:17.192Z,21.40
2018-10-18T09:20:21.219Z,21.03
2018-10-18T09:24:25.134Z,22.10
2018-10-18T09:28:28.970Z,22.83
2018-10-18T09:32:33.217Z,22.87
2018-10-18T09:36:36.978Z,22.20
2018-10-18T09:40:40.761Z,22.77
2018-10-18T09:44:47.433Z,23.13
2018-10-18T09:49:01.159Z,23.73
2018-10-18T09:53:06.858Z,23.23
2018-10-18T09:57:14.601Z,23.23
2018-10-18T10:01:36.896Z,21.57
2018-10-18T10:05:44.695Z,22.60
2018-10-18T10:09:49.788Z,23.00
2018-10-18T10:13:53.401Z,21.57
2018-10-18T10:17:59.326Z,21.47
2018-10-18T10:22:04.089Z,19.17
2018-10-18T10:26:11.917Z,21.47
2018-10-18T10:30:37.953Z,18.73
2018-10-18T10:34:48.664Z,18.50
2018-10-18T10:38:53.128Z,20.47
2018-10-18T10:43:05.337Z,20.50
2018-10-18T10:47:10.109Z,24.30
2018-10-18T10:51:17.992Z,21.17
2018-10-18T10:55:21.923Z,20.80
2018-10-18T10:59:40.170Z,22.80
2018-10-18T11:03:46.443Z,19.03
2018-10-18T11:07:57.471Z,21.50
2018-10-18T11:12:07.482Z,20.90
2018-10-18T11:16:11.970Z,19.10
2018-10-18T11:20:25.124Z,15.43
2018-10-18T11:24:36.178Z,16.47
2018-10-18T11:28:46.408Z,17.43
2018-10-18T11:32:54.681Z,15.53
2018-10-18T11:37:00.609Z,14.83
2018-10-18T11:41:05.969Z,17.40
2018-10-18T11:45:11.269Z,16.70
2018-10-18T11:49:15.622Z,17.33
2018-10-18T11:53:20.114Z,15.40
2018-10-18T11:57:32.639Z,15.87
2018-10-18T12:01:40.615Z,15.23
2018-10-18T12:05:48.256Z,15.10
2018-10-18T12:09:54.452Z,14.80
2018-10-18T12:14:03.473Z,15.67
2018-10-18T12:18:10.214Z,17.10
2018-10-18T12:22:15.735Z,19.03
2018-10-18T12:26:22.020Z,18.77
2018-10-18T12:30:27.844Z,17.47
2018-10-18T12:34:35.106Z,19.40
2018-10-18T12:38:43.520Z,18.47
2018-10-18T12:42:53.103Z,20.10
2018-10-18T12:46:58.385Z,19.27
2018-10-18T12:51:02.049Z,18.53
2018-10-18T12:55:05.998Z,18.67
2018-10-18T12:59:10.956Z,18.00
2018-10-18T13:03:14.678Z,19.20
2018-10-18T13:07:18.445Z,18.83
2018-10-18T13:11:22.077Z,19.90
2018-10-18T13:15:25.730Z,18.77
2018-10-18T13:19:29.382Z,16.80
2018-10-18T13:23:36.207Z,14.30
2018-10-18T13:27:43.982Z,15.30
2018-10-18T13:31:51.102Z,14.57
2018-10-18T13:36:01.117Z,15.47
2018-10-18T13:40:05.932Z,17.30
2018-10-18T13:44:19.694Z,19.00
2018-10-18T13:48:28.375Z,17.57
2018-10-18T13:52:37.188Z,18.60
2018-10-18T13:56:42.741Z,15.00
2018-10-18T14:00:48.437Z,14.80
2018-10-18T14:04:52.785Z,14.67
2018-10-18T14:08:57.617Z,15.10
2018-10-18T14:13:01.742Z,13.50
2018-10-18T14:17:07.525Z,12.50
2018-10-18T14:21:16.296Z,12.87
2018-10-18T14:25:20.508Z,12.77
2018-10-18T14:29:24.461Z,9.20
2018-10-18T14:33:39.536Z,10.53
2018-10-18T14:37:52.849Z,7.57
2018-10-18T14:41:57.380Z,7.67
2018-10-18T14:46:02.844Z,7.40
2018-10-18T14:50:11.883Z,6.63
2018-10-18T14:54:15.992Z,7.53
2018-10-18T14:58:26.424Z,7.57
2018-10-18T15:02:31.355Z,7.77
2018-10-18T15:06:35.461Z,8.60
2018-10-18T15:10:40.146Z,8.73
2018-10-18T15:14:48.288Z,9.20
2018-10-18T15:18:57.834Z,9.90
2018-10-18T15:23:03.060Z,9.60
2018-10-18T15:27:07.439Z,8.73
2018-10-18T15:31:12.254Z,8.83
2018-10-18T15:35:20.296Z,9.77
2018-10-18T15:39:40.810Z,9.70
2018-10-18T15:43:45.836Z,10.00
2018-10-18T15:48:00.170Z,10.40
2018-10-18T15:52:08.511Z,10.77
2018-10-18T15:56:17.202Z,10.20
2018-10-18T16:00:23.511Z,9.50
2018-10-18T16:04:29.335Z,10.08
2018-10-18T16:08:39.353Z,7.70
2018-10-18T16:12:43.170Z,7.50
2018-10-18T16:16:47.295Z,7.60
2018-10-18T16:25:20.081Z,7.53
2018-10-18T16:29:27.489Z,7.80
2018-10-18T16:33:37.718Z,8.53
2018-10-18T16:37:47.688Z,9.13
2018-10-18T16:41:57.588Z,5.90
2018-10-18T16:46:12.572Z,4.90
2018-10-18T16:50:19.779Z,4.37
2018-10-18T16:58:42.152Z,4.53
2018-10-18T17:02:53.592Z,4.67
2018-10-18T17:07:00.590Z,4.87
2018-10-18T17:11:07.112Z,4.37
2018-10-18T17:15:23.167Z,4.73
2018-10-18T17:19:36.197Z,5.07
2018-10-18T17:23:42.864Z,5.27
2018-10-18T17:27:49.033Z,5.87
2018-10-18T17:31:55.666Z,5.83
2018-10-18T17:36:01.498Z,6.00
2018-10-18T17:40:08.223Z,5.73
2018-10-18T17:44:15.325Z,6.40
2018-10-18T17:48:24.991Z,6.47
2018-10-18T17:52:37.167Z,6.60
2018-10-18T17:56:52.068Z,6.47
2018-10-18T18:01:05.492Z,6.67
2018-10-18T18:05:10.409Z,7.77
2018-10-18T18:09:23.407Z,7.63
2018-10-18T18:13:31.104Z,6.50
2018-10-18T18:17:38.002Z,7.07
2018-10-18T18:21:42.016Z,6.40
2018-10-18T18:25:46.711Z,6.13
2018-10-18T18:30:02.970Z,6.50
2018-10-18T18:34:14.763Z,6.50
2018-10-18T18:38:21.708Z,6.33
2018-10-18T18:42:29.510Z,6.83
2018-10-18T18:46:47.870Z,6.90
2018-10-18T18:50:54.399Z,6.97
2018-10-18T18:55:06.932Z,7.40
2018-10-18T18:59:10.525Z,6.70
2018-10-18T19:03:16.493Z,6.67
2018-10-18T19:07:24.291Z,7.20
2018-10-18T19:11:36.076Z,9.23
2018-10-18T19:15:50.238Z,7.20
2018-10-18T19:19:56.241Z,5.90
2018-10-18T19:24:00.015Z,6.17
2018-10-18T19:28:07.326Z,6.67
2018-10-18T19:32:11.698Z,6.87
2018-10-18T19:36:15.893Z,5.90
2018-10-18T19:40:20.048Z,6.03
2018-10-18T19:44:25.458Z,5.80
2018-10-18T19:48:30.607Z,6.43
2018-10-18T19:52:34.911Z,6.80
2018-10-18T19:56:38.940Z,6.53
2018-10-18T20:00:45.481Z,7.30
2018-10-18T20:04:48.997Z,7.30
2018-10-18T20:08:54.825Z,8.23
2018-10-18T20:13:01.333Z,7.37
2018-10-18T20:17:06.766Z,7.23
2018-10-18T20:21:13.065Z,7.17
2018-10-18T20:25:18.211Z,7.10
2018-10-18T20:29:21.751Z,7.03
2018-10-18T20:33:26.656Z,6.70
2018-10-18T20:37:30.083Z,6.37
2018-10-18T20:41:34.103Z,6.83
2018-10-18T20:45:37.631Z,5.93
2018-10-18T20:49:41.899Z,6.77
2018-10-18T20:53:46.048Z,6.93
2018-10-18T20:57:50.439Z,6.33
2018-10-18T21:01:54.272Z,5.80
2018-10-18T21:05:58.639Z,5.67
2018-10-18T21:10:02.328Z,6.20
2018-10-18T21:14:06.253Z,10.10
2018-10-18T21:18:09.790Z,6.37
2018-10-18T21:22:13.303Z,6.60
2018-10-18T21:26:16.690Z,6.20
2018-10-18T21:30:20.182Z,6.73
2018-10-18T21:34:23.646Z,6.20
2018-10-18T21:38:27.057Z,5.50
2018-10-18T21:42:31.224Z,5.40
2018-10-18T21:46:42.199Z,5.90
2018-10-18T21:50:45.674Z,5.63
2018-10-18T21:54:49.045Z,5.50
2018-10-18T21:58:52.854Z,5.20
2018-10-18T22:02:56.575Z,5.10
2018-10-18T22:07:00.132Z,5.47
2018-10-18T22:11:03.583Z,5.43
2018-10-18T22:15:08.744Z,5.80
2018-10-18T22:19:12.447Z,5.37
2018-10-18T22:23:15.887Z,5.53
2018-10-18T22:27:19.280Z,5.13
2018-10-18T22:31:22.666Z,5.63
2018-10-18T22:35:26.084Z,5.50
2018-10-18T22:39:29.491Z,5.50
2018-10-18T22:43:33.629Z,5.00
2018-10-18T22:47:37.240Z,5.53
2018-10-18T22:51:41.834Z,5.53
2018-10-18T22:55:45.257Z,5.00
2018-10-18T22:59:48.707Z,4.90
2018-10-18T23:03:52.124Z,5.10
2018-10-18T23:07:55.594Z,5.03
2018-10-18T23:11:59.084Z,5.17
2018-10-18T23:16:02.486Z,5.63
2018-10-18T23:20:06.739Z,5.43
2018-10-18T23:24:10.183Z,6.23
2018-10-18T23:28:13.619Z,5.97
2018-10-18T23:32:17.056Z,6.20
2018-10-18T23:36:20.462Z,6.30
2018-10-18T23:40:23.850Z,6.67
2018-10-18T23:44:27.673Z,5.90
2018-10-18T23:48:31.112Z,6.23
2018-10-18T23:52:34.856Z,5.77
2018-10-18T23:56:38.236Z,6.10
